Time;durP1;ratioP1;P1;durP2;ratioP2;P2;SDS_P1;SDS_P2;PMS_P1;PMS_P2;Temp;Humidity;BMP_temperature;BMP_pressure;BME280_temperature;BME280_humidity;BME280_pressure;Samples;Min_cycle;Max_cycle;Signal;HPM_P1;HPM_P2
2022/05/29 00:00:45;;;;;;;10.60;4.30;;;9.90;99.90;;;;;;5070741;28;20234;-78
2022/05/29 00:03:12;;;;;;;11.67;4.47;;;9.90;99.90;;;;;;5068161;28;20207;-79
2022/05/29 00:05:40;;;;;;;9.53;3.57;;;9.80;99.90;;;;;;5065817;28;20205;-78
2022/05/29 00:08:07;;;;;;;8.47;3.43;;;9.70;99.90;;;;;;5054739;28;20340;-78
2022/05/29 00:10:38;;;;;;;9.90;3.87;;;9.70;99.90;;;;;;5063597;28;20258;-78
2022/05/29 00:13:05;;;;;;;8.27;3.60;;;9.70;99.90;;;;;;5053733;28;20246;-78
2022/05/29 00:15:33;;;;;;;7.50;3.50;;;9.60;99.90;;;;;;5056096;28;20310;-79
2022/05/29 00:18:00;;;;;;;8.13;3.70;;;9.60;99.90;;;;;;5054681;28;20228;-78
2022/05/29 00:20:27;;;;;;;8.07;2.90;;;9.60;99.90;;;;;;5053629;28;20211;-78
2022/05/29 00:22:54;;;;;;;11.70;3.37;;;9.60;99.90;;;;;;5056847;28;20203;-78
2022/05/29 00:25:21;;;;;;;7.53;3.40;;;9.60;99.90;;;;;;5054918;28;20601;-79
2022/05/29 00:27:48;;;;;;;7.23;3.30;;;9.60;99.90;;;;;;5063449;28;20290;-78
2022/05/29 00:30:15;;;;;;;10.23;3.30;;;9.60;99.90;;;;;;5057204;28;20277;-78
2022/05/29 00:32:46;;;;;;;5.27;2.90;;;9.60;99.90;;;;;;5054163;28;20244;-78
2022/05/29 00:35:13;;;;;;;8.73;3.33;;;9.60;99.90;;;;;;5056535;28;20274;-78
2022/05/29 00:37:42;;;;;;;11.77;3.17;;;9.60;99.90;;;;;;5067304;28;20767;-78
2022/05/29 00:40:21;;;;;;;8.33;3.00;;;9.50;99.90;;;;;;5056589;28;20269;-78
2022/05/29 00:42:48;;;;;;;6.30;3.10;;;9.50;99.90;;;;;;5061201;28;20305;-78
2022/05/29 00:45:20;;;;;;;6.57;3.00;;;9.60;99.90;;;;;;5068203;28;20322;-78
2022/05/29 00:47:48;;;;;;;8.87;2.73;;;9.50;99.90;;;;;;5066905;28;20219;-79
2022/05/29 00:50:19;;;;;;;8.57;2.83;;;9.50;99.90;;;;;;5066517;28;20218;-78
2022/05/29 00:52:46;;;;;;;5.17;2.90;;;9.50;99.90;;;;;;5069013;28;20304;-78
2022/05/29 00:55:16;;;;;;;8.30;2.70;;;9.60;99.90;;;;;;5069655;28;20276;-78
2022/05/29 00:57:46;;;;;;;5.77;3.07;;;9.60;99.90;;;;;;5066090;28;20284;-78
2022/05/29 01:00:16;;;;;;;5.73;2.80;;;9.60;99.90;;;;;;5068935;28;20325;-78
2022/05/29 01:02:44;;;;;;;5.97;3.00;;;9.60;99.90;;;;;;5069361;28;20995;-78
2022/05/29 01:05:16;;;;;;;6.43;2.87;;;9.60;99.90;;;;;;5068672;28;20208;-78
2022/05/29 01:07:44;;;;;;;5.63;2.80;;;9.60;99.90;;;;;;5067748;28;20288;-78
2022/05/29 01:10:11;;;;;;;6.57;2.63;;;9.60;99.90;;;;;;5069157;28;20257;-78
2022/05/29 01:12:49;;;;;;;7.40;2.83;;;9.60;99.90;;;;;;5070357;28;20702;-78
2022/05/29 01:15:29;;;;;;;4.60;2.43;;;9.60;99.90;;;;;;5067979;28;20252;-79
2022/05/29 01:18:06;;;;;;;8.00;3.13;;;9.60;99.90;;;;;;5064123;28;20203;-78
2022/05/29 01:20:54;;;;;;;5.37;2.40;;;9.70;99.90;;;;;;5070496;28;20202;-78
2022/05/29 01:23:55;;;;;;;5.03;2.53;;;9.70;99.90;;;;;;5069078;28;20294;-78
2022/05/29 01:26:43;;;;;;;8.13;2.50;;;9.70;99.90;;;;;;5070243;28;20248;-78
2022/05/29 01:29:16;;;;;;;5.33;2.40;;;9.70;99.90;;;;;;5065411;28;20202;-78
2022/05/29 01:31:49;;;;;;;5.30;2.40;;;9.70;99.90;;;;;;5070070;28;20301;-78
2022/05/29 01:34:28;;;;;;;4.70;2.40;;;9.70;99.90;;;;;;5069714;28;20639;-78
2022/05/29 01:37:08;;;;;;;6.57;2.70;;;9.60;99.90;;;;;;5066347;28;20228;-78
2022/05/29 01:39:42;;;;;;;4.13;2.37;;;9.70;99.90;;;;;;5068410;28;20227;-78
2022/05/29 01:42:15;;;;;;;5.03;2.50;;;9.70;99.90;;;;;;5066613;28;20635;-78
2022/05/29 01:44:50;;;;;;;6.27;2.30;;;9.60;99.90;;;;;;5062999;28;20247;-78
2022/05/29 01:47:23;;;;;;;6.43;2.63;;;9.60;99.90;;;;;;5067929;28;20206;-78
2022/05/29 01:49:52;;;;;;;4.93;2.20;;;9.70;99.90;;;;;;5065585;28;20209;-78
2022/05/29 01:52:27;;;;;;;8.07;2.43;;;9.70;99.90;;;;;;5062158;28;20298;-78
2022/05/29 01:54:58;;;;;;;6.73;2.60;;;9.60;99.90;;;;;;5062003;28;20230;-78
2022/05/29 01:57:28;;;;;;;6.50;2.60;;;9.50;99.90;;;;;;5071998;28;20234;-78
2022/05/29 02:00:01;;;;;;;5.87;2.60;;;9.40;99.90;;;;;;5069615;28;20337;-77
2022/05/29 02:02:35;;;;;;;5.73;2.47;;;9.40;99.90;;;;;;5073736;28;20294;-78
2022/05/29 02:05:07;;;;;;;5.87;2.40;;;9.30;99.90;;;;;;5073963;28;20292;-78
2022/05/29 02:07:48;;;;;;;7.93;2.50;;;9.30;99.90;;;;;;5072380;28;20204;-78
2022/05/29 02:10:22;;;;;;;6.37;2.40;;;9.30;99.90;;;;;;5073209;28;20210;-78
2022/05/29 02:12:53;;;;;;;5.00;2.30;;;9.20;99.90;;;;;;5074432;28;20289;-78
2022/05/29 02:15:28;;;;;;;5.00;2.40;;;9.20;99.90;;;;;;5070113;28;20257;-78
2022/05/29 02:17:59;;;;;;;5.80;2.60;;;9.10;99.90;;;;;;5068110;28;20225;-78
2022/05/29 02:20:31;;;;;;;4.73;2.27;;;9.10;99.90;;;;;;5071336;28;20233;-78
2022/05/29 02:23:03;;;;;;;5.43;2.40;;;9.10;99.90;;;;;;5074144;28;20234;-78
2022/05/29 02:25:31;;;;;;;6.77;2.37;;;9.10;99.90;;;;;;5073819;28;20749;-77
2022/05/29 02:28:03;;;;;;;5.33;2.43;;;9.00;99.90;;;;;;5070983;28;20686;-78
2022/05/29 02:30:39;;;;;;;4.90;2.40;;;9.00;99.90;;;;;;5073674;28;20234;-77
2022/05/29 02:33:12;;;;;;;8.30;2.60;;;9.00;99.90;;;;;;5075325;28;20713;-78
2022/05/29 02:35:45;;;;;;;4.80;2.50;;;8.90;99.90;;;;;;5071664;28;20314;-78
2022/05/29 02:38:20;;;;;;;6.73;2.50;;;8.80;99.90;;;;;;5072944;28;20239;-78
2022/05/29 02:40:55;;;;;;;4.73;2.50;;;8.70;99.90;;;;;;5075549;28;20279;-78
2022/05/29 02:43:33;;;;;;;7.73;2.40;;;8.60;99.90;;;;;;5069029;28;20301;-78
2022/05/29 02:46:07;;;;;;;5.43;2.67;;;8.60;99.90;;;;;;5070451;28;20565;-78
2022/05/29 02:48:46;;;;;;;4.93;2.37;;;8.50;99.90;;;;;;5075276;28;20287;-78
2022/05/29 02:51:19;;;;;;;4.90;2.30;;;8.40;99.90;;;;;;5073640;28;20472;-78
2022/05/29 02:53:48;;;;;;;6.70;2.33;;;8.40;99.90;;;;;;5074275;28;20765;-78
2022/05/29 02:56:16;;;;;;;5.10;2.43;;;8.50;99.90;;;;;;5075366;28;20304;-78
2022/05/29 02:58:48;;;;;;;4.50;2.33;;;8.50;99.90;;;;;;5072578;28;20211;-78
2022/05/29 03:01:22;;;;;;;5.57;2.87;;;8.40;99.90;;;;;;5075845;28;20251;-78
2022/05/29 03:04:11;;;;;;;5.87;2.50;;;8.30;99.90;;;;;;5071783;28;20305;-78
2022/05/29 03:06:47;;;;;;;6.67;2.87;;;8.30;99.90;;;;;;5073259;28;20225;-78
2022/05/29 03:09:34;;;;;;;7.23;2.57;;;8.30;99.90;;;;;;5070817;28;20251;-78
2022/05/29 03:12:03;;;;;;;5.83;2.53;;;8.30;99.90;;;;;;5064478;28;20685;-78
2022/05/29 03:14:40;;;;;;;4.70;2.40;;;8.30;99.90;;;;;;5065741;28;20295;-78
2022/05/29 03:17:15;;;;;;;3.80;2.30;;;8.30;99.90;;;;;;5070121;28;20276;-78
2022/05/29 03:19:51;;;;;;;4.03;2.43;;;8.30;99.90;;;;;;5070660;28;20252;-78
2022/05/29 03:22:28;;;;;;;4.37;2.43;;;8.30;99.90;;;;;;5066987;28;20289;-78
2022/05/29 03:25:03;;;;;;;4.50;2.23;;;8.20;99.90;;;;;;5066997;28;20289;-78
2022/05/29 03:27:36;;;;;;;3.93;2.30;;;8.20;99.90;;;;;;5070480;28;20224;-78
2022/05/29 03:30:08;;;;;;;5.07;2.57;;;8.20;99.90;;;;;;5067091;28;20672;-78
2022/05/29 03:32:38;;;;;;;4.70;2.50;;;8.10;99.90;;;;;;5068286;28;20210;-78
2022/05/29 03:35:22;;;;;;;4.93;3.13;;;8.10;99.90;;;;;;5070745;28;20231;-78
2022/05/29 03:37:49;;;;;;;5.50;2.53;;;8.10;99.90;;;;;;5070751;28;20232;-78
2022/05/29 03:40:17;;;;;;;3.70;2.30;;;8.00;99.90;;;;;;5068829;28;20274;-78
2022/05/29 03:42:44;;;;;;;5.17;2.20;;;7.90;99.90;;;;;;5070453;28;20244;-78
2022/05/29 03:45:12;;;;;;;8.90;2.73;;;7.90;99.90;;;;;;5070134;28;20285;-78
2022/05/29 03:47:41;;;;;;;4.03;2.40;;;7.90;99.90;;;;;;5059874;28;20269;-78
2022/05/29 03:50:12;;;;;;;4.97;2.30;;;7.90;99.90;;;;;;5063877;28;20231;-78
2022/05/29 03:52:39;;;;;;;4.37;2.20;;;8.00;99.90;;;;;;5059494;28;20250;-79
2022/05/29 03:55:08;;;;;;;5.83;2.47;;;8.10;99.90;;;;;;5060836;28;20265;-78
2022/05/29 03:57:35;;;;;;;4.63;2.50;;;8.10;99.90;;;;;;5060910;28;20235;-78
2022/05/29 04:00:02;;;;;;;5.93;2.40;;;8.10;99.90;;;;;;5058278;28;20206;-78
2022/05/29 04:02:29;;;;;;;4.50;2.30;;;8.20;99.90;;;;;;5061827;28;20297;-77
2022/05/29 04:04:57;;;;;;;4.97;2.30;;;8.20;99.90;;;;;;5060185;28;20242;-77
2022/05/29 04:12:03;;;;;;;5.73;2.50;;;8.20;99.90;;;;;;5060580;28;20239;-78
2022/05/29 04:12:57;;;;;;;3.57;2.23;;;8.00;99.90;;;;;;5060626;28;20290;-77
2022/05/29 04:15:24;;;;;;;4.57;2.40;;;7.90;99.90;;;;;;5062047;28;20294;-77
2022/05/29 04:17:51;;;;;;;5.97;2.37;;;7.90;99.90;;;;;;5059319;28;20664;-77
2022/05/29 04:20:21;;;;;;;4.23;2.00;;;7.90;99.90;;;;;;5059782;28;20241;-77
2022/05/29 04:22:48;;;;;;;4.97;2.40;;;8.00;99.90;;;;;;5063626;28;20232;-77
2022/05/29 04:25:15;;;;;;;2.60;2.00;;;8.00;99.90;;;;;;5059120;28;20245;-77
2022/05/29 04:27:42;;;;;;;4.10;1.93;;;8.00;99.90;;;;;;5061460;28;20291;-79
2022/05/29 04:30:12;;;;;;;5.43;2.07;;;8.10;99.90;;;;;;5054337;28;20333;-79
2022/05/29 04:35:23;;;;;;;3.40;1.97;;;8.00;99.90;;;;;;5044713;28;20548;-78
2022/05/29 04:37:50;;;;;;;3.40;2.00;;;8.10;99.90;;;;;;5061516;28;20230;-79
2022/05/29 04:40:17;;;;;;;4.27;1.80;;;8.10;99.90;;;;;;5061569;28;20297;-79
2022/05/29 04:42:44;;;;;;;5.33;1.90;;;8.10;99.90;;;;;;5059952;28;20300;-78
2022/05/29 04:45:12;;;;;;;5.37;2.00;;;8.10;99.90;;;;;;5062596;28;20279;-76
2022/05/29 04:47:38;;;;;;;3.27;1.90;;;8.10;99.90;;;;;;5057616;28;20235;-79
2022/05/29 04:50:07;;;;;;;2.87;1.80;;;8.20;99.90;;;;;;5062751;28;20760;-77
2022/05/29 04:52:36;;;;;;;2.63;1.77;;;8.30;99.90;;;;;;5059999;28;20293;-78
2022/05/29 04:55:04;;;;;;;5.20;1.73;;;8.30;99.90;;;;;;5068862;28;20673;-79
2022/05/29 04:57:31;;;;;;;4.10;1.67;;;8.40;99.90;;;;;;5067335;28;20227;-77
2022/05/29 04:59:58;;;;;;;2.23;1.67;;;8.40;99.90;;;;;;5056987;28;20302;-77
2022/05/29 05:02:25;;;;;;;2.30;1.73;;;8.40;99.90;;;;;;5058348;28;20601;-77
2022/05/29 05:04:52;;;;;;;2.47;1.37;;;8.50;99.90;;;;;;5061133;28;20318;-77
2022/05/29 05:07:19;;;;;;;4.80;2.10;;;8.60;99.90;;;;;;5059247;28;20372;-77
2022/05/29 05:09:48;;;;;;;4.97;1.60;;;8.60;99.90;;;;;;5060650;28;20725;-77
2022/05/29 05:12:15;;;;;;;3.93;1.70;;;8.70;99.90;;;;;;5061802;28;20206;-77
2022/05/29 05:14:42;;;;;;;3.50;1.37;;;8.80;99.90;;;;;;5055916;28;20237;-78
2022/05/29 05:17:09;;;;;;;2.00;1.33;;;9.00;99.90;;;;;;5058421;28;20255;-79
2022/05/29 05:19:36;;;;;;;2.17;1.50;;;9.10;99.90;;;;;;5058924;28;20288;-79
2022/05/29 05:22:05;;;;;;;2.53;1.50;;;9.20;99.90;;;;;;5052328;28;20207;-79
2022/05/29 05:24:34;;;;;;;2.67;1.40;;;9.30;99.90;;;;;;5055604;28;20293;-79
2022/05/29 05:27:02;;;;;;;1.57;1.30;;;9.50;99.90;;;;;;5053966;28;20645;-79
2022/05/29 05:29:29;;;;;;;3.23;1.50;;;10.00;99.90;;;;;;5054473;28;20227;-79
2022/05/29 05:31:56;;;;;;;3.17;1.43;;;10.50;99.90;;;;;;5053809;28;20285;-77
2022/05/29 05:34:23;;;;;;;2.37;1.10;;;10.80;99.90;;;;;;5066835;28;20300;-79
2022/05/29 05:36:49;;;;;;;3.37;1.20;;;11.10;99.90;;;;;;5055081;28;20721;-77
2022/05/29 05:39:17;;;;;;;3.00;1.43;;;11.30;99.90;;;;;;5063588;28;20288;-79
2022/05/29 05:41:43;;;;;;;2.47;1.00;;;11.40;99.90;;;;;;5060873;28;20218;-80
2022/05/29 05:44:12;;;;;;;2.93;1.10;;;11.50;99.90;;;;;;5059964;28;20270;-80
2022/05/29 05:46:44;;;;;;;3.73;1.03;;;11.90;99.90;;;;;;5066760;28;20231;-80
2022/05/29 05:49:11;;;;;;;6.17;1.30;;;12.50;99.90;;;;;;5068854;28;20247;-78
2022/05/29 05:51:38;;;;;;;3.57;1.20;;;12.80;99.90;;;;;;5067846;28;20225;-80
2022/05/29 05:54:05;;;;;;;2.30;1.33;;;13.40;99.90;;;;;;5068238;28;20237;-79
2022/05/29 05:56:32;;;;;;;0.93;0.70;;;13.90;99.90;;;;;;5069104;28;20300;-80
2022/05/29 05:58:59;;;;;;;1.87;1.00;;;14.10;99.90;;;;;;5066216;28;20234;-79
2022/05/29 06:01:27;;;;;;;1.80;1.00;;;14.80;99.90;;;;;;5069835;28;20283;-78
2022/05/29 06:03:54;;;;;;;4.10;1.00;;;15.10;99.90;;;;;;5065984;28;20282;-77
2022/05/29 06:06:21;;;;;;;2.13;1.00;;;15.20;99.90;;;;;;5069760;28;20234;-80
2022/05/29 06:08:48;;;;;;;2.97;0.83;;;15.40;99.90;;;;;;5067032;28;20235;-79
2022/05/29 06:11:15;;;;;;;5.33;0.97;;;15.30;99.90;;;;;;5066193;28;20241;-80
2022/05/29 06:13:42;;;;;;;2.20;1.00;;;15.50;99.90;;;;;;5065726;28;20298;-80
2022/05/29 06:16:09;;;;;;;1.77;0.80;;;16.00;99.90;;;;;;5065438;28;20644;-78
2022/05/29 06:18:37;;;;;;;1.20;0.70;;;15.80;99.90;;;;;;5067242;28;20310;-78
2022/05/29 06:21:05;;;;;;;1.87;0.80;;;15.90;99.90;;;;;;5063111;28;20647;-78
2022/05/29 06:23:33;;;;;;;2.30;1.00;;;16.00;99.90;;;;;;5063952;28;20207;-78
2022/05/29 06:26:02;;;;;;;1.50;0.80;;;15.70;99.90;;;;;;5067679;28;20290;-78
2022/05/29 06:28:29;;;;;;;1.53;0.90;;;15.80;99.90;;;;;;5068958;28;20199;-79
2022/05/29 06:30:56;;;;;;;2.30;0.73;;;16.20;99.90;;;;;;5062324;28;20290;-79
2022/05/29 06:33:23;;;;;;;2.47;1.00;;;16.50;99.90;;;;;;5067504;28;20297;-79
2022/05/29 06:35:51;;;;;;;1.63;0.80;;;16.20;99.90;;;;;;5068618;28;20203;-79
2022/05/29 06:38:18;;;;;;;0.98;0.80;;;16.40;99.90;;;;;;5067435;28;20257;-79
2022/05/29 06:40:49;;;;;;;2.00;0.95;;;16.90;99.90;;;;;;5065840;28;20640;-79
2022/05/29 06:43:16;;;;;;;3.25;0.88;;;17.40;99.90;;;;;;5067550;28;20199;-79
2022/05/29 06:45:43;;;;;;;2.58;0.70;;;17.10;99.90;;;;;;5070781;28;20246;-79
2022/05/29 06:48:10;;;;;;;2.58;0.70;;;16.50;99.90;;;;;;5052269;28;20220;-79
2022/05/29 06:50:37;;;;;;;1.50;0.80;;;17.30;99.90;;;;;;5069631;28;20265;-79
2022/05/29 06:53:05;;;;;;;2.35;0.68;;;16.70;99.90;;;;;;5071547;28;20235;-79
2022/05/29 06:55:32;;;;;;;1.85;0.80;;;16.50;99.90;;;;;;5070958;28;20203;-79
2022/05/29 06:57:59;;;;;;;2.75;0.90;;;16.70;99.90;;;;;;5068891;28;20263;-79
2022/05/29 07:08:38;;;;;;;1.60;0.70;;;17.00;99.90;;;;;;5014648;28;20739;-79
2022/05/29 07:11:10;;;;;;;2.72;0.90;;;17.80;99.90;;;;;;5028363;28;20295;-80
2022/05/29 07:13:37;;;;;;;1.40;0.90;;;17.00;99.90;;;;;;5019849;28;20215;-79
2022/05/29 07:16:05;;;;;;;2.10;0.75;;;17.00;99.90;;;;;;5016331;28;20237;-80
2022/05/29 07:18:33;;;;;;;1.60;0.60;;;16.80;99.90;;;;;;5016974;28;20763;-79
2022/05/29 07:21:01;;;;;;;1.50;0.80;;;16.90;99.90;;;;;;5020861;28;20231;-79
2022/05/29 07:23:28;;;;;;;1.63;0.65;;;17.00;99.90;;;;;;5027299;28;20200;-80
2022/05/29 07:25:56;;;;;;;2.17;0.90;;;17.40;99.90;;;;;;5014291;28;20670;-79
2022/05/29 07:28:23;;;;;;;2.20;0.70;;;17.80;99.30;;;;;;5021706;28;20642;-79
2022/05/29 07:30:51;;;;;;;1.10;0.77;;;17.00;96.50;;;;;;5019070;28;20307;-80
2022/05/29 07:33:18;;;;;;;1.45;0.77;;;16.20;99.90;;;;;;5020873;28;20236;-80
2022/05/29 07:35:45;;;;;;;2.55;0.77;;;16.80;99.90;;;;;;5014709;28;20267;-80
2022/05/29 07:38:12;;;;;;;1.92;0.70;;;17.70;98.40;;;;;;5018325;28;20264;-80
2022/05/29 07:40:39;;;;;;;2.40;0.65;;;16.90;94.50;;;;;;5016240;28;20632;-79
2022/05/29 07:43:19;;;;;;;2.03;0.70;;;16.80;96.30;;;;;;5016341;28;20687;-80
2022/05/29 07:45:46;;;;;;;1.60;0.60;;;17.20;95.50;;;;;;5038926;28;20292;-80
2022/05/29 07:48:14;;;;;;;2.03;0.70;;;17.80;89.80;;;;;;5070540;28;20207;-79
2022/05/29 07:50:41;;;;;;;2.92;0.90;;;17.70;87.40;;;;;;5067097;28;20669;-80
2022/05/29 07:53:08;;;;;;;1.65;0.50;;;17.60;86.70;;;;;;5071001;28;20226;-80
2022/05/29 07:55:37;;;;;;;1.98;0.70;;;18.20;86.50;;;;;;5071016;28;20202;-79
2022/05/29 07:58:04;;;;;;;2.25;0.63;;;17.30;69.90;;;;;;5071622;28;20223;-80
2022/05/29 08:00:32;;;;;;;2.88;0.70;;;17.40;85.00;;;;;;5067059;28;20667;-80
2022/05/29 08:02:59;;;;;;;1.30;0.85;;;17.40;81.00;;;;;;5071327;28;20653;-80
2022/05/29 08:05:27;;;;;;;2.28;0.60;;;17.30;78.40;;;;;;5068272;28;20599;-80
2022/05/29 08:07:54;;;;;;;1.77;0.50;;;17.90;83.50;;;;;;5067459;28;20762;-79
2022/05/29 08:10:23;;;;;;;1.63;0.60;;;18.40;58.10;;;;;;5061270;28;20280;-80
2022/05/29 08:12:50;;;;;;;1.42;0.60;;;18.80;54.40;;;;;;5069571;28;20305;-80
2022/05/29 08:15:17;;;;;;;1.30;0.60;;;19.10;59.60;;;;;;5071804;28;20694;-78
2022/05/29 08:17:46;;;;;;;2.72;0.80;;;18.00;64.70;;;;;;5067039;28;20317;-80
2022/05/29 08:20:15;;;;;;;0.82;0.47;;;18.70;56.70;;;;;;5065658;28;20264;-80
2022/05/29 08:22:42;;;;;;;2.33;0.65;;;19.30;56.40;;;;;;5069447;28;20242;-79
2022/05/29 08:30:43;;;;;;;0.73;0.60;;;19.20;27.00;;;;;;5067288;28;20198;-79
2022/05/29 08:33:14;;;;;;;2.55;0.60;;;19.30;42.30;;;;;;5067211;28;20203;-79
2022/05/29 08:35:43;;;;;;;2.17;0.60;;;19.10;24.40;;;;;;5063354;28;20289;-80
2022/05/29 08:38:12;;;;;;;3.60;0.68;;;19.30;36.70;;;;;;5066217;28;20258;-80
2022/05/29 08:40:45;;;;;;;1.42;0.60;;;20.80;29.40;;;;;;5070548;28;20238;-80
2022/05/29 08:43:17;;;;;;;1.55;0.77;;;19.80;14.50;;;;;;5071456;28;20241;-80
2022/05/29 08:45:46;;;;;;;1.17;0.55;;;20.10;22.80;;;;;;5063586;28;20679;-79
2022/05/29 08:48:21;;;;;;;1.55;0.63;;;20.60;23.10;;;;;;5056455;28;20771;-79
2022/05/29 08:51:04;;;;;;;1.60;0.70;;;20.30;15.50;;;;;;5063961;28;20206;-81
2022/05/29 08:53:40;;;;;;;1.42;0.60;;;19.90;19.10;;;;;;5066249;28;20234;-80
2022/05/29 08:56:16;;;;;;;1.27;0.68;;;19.60;16.70;;;;;;5059634;28;20203;-80
2022/05/29 08:59:01;;;;;;;1.45;0.60;;;19.70;17.90;;;;;;5055499;28;20232;-80
2022/05/29 09:01:38;;;;;;;2.30;0.80;;;20.30;20.60;;;;;;5056443;28;20301;-80
2022/05/29 09:04:14;;;;;;;1.83;0.75;;;20.10;28.80;;;;;;5056531;28;20298;-80
2022/05/29 09:06:45;;;;;;;1.90;0.70;;;20.00;30.10;;;;;;5054766;28;20290;-80
2022/05/29 09:09:18;;;;;;;1.98;0.70;;;19.90;30.00;;;;;;5058515;28;20263;-80
2022/05/29 09:11:51;;;;;;;1.45;0.60;;;19.70;41.50;;;;;;5059138;28;20262;-79
2022/05/29 09:14:22;;;;;;;1.55;0.77;;;20.60;42.10;;;;;;5052359;28;20211;-80
2022/05/29 09:16:55;;;;;;;3.53;0.90;;;19.70;51.10;;;;;;5059182;28;20249;-80
2022/05/29 09:19:36;;;;;;;2.03;0.70;;;19.50;53.10;;;;;;5065005;28;20250;-80
2022/05/29 09:22:10;;;;;;;1.58;0.70;;;19.30;49.50;;;;;;5053950;28;20231;-80
2022/05/29 09:24:48;;;;;;;3.60;0.70;;;19.60;54.40;;;;;;5056333;28;20242;-80
2022/05/29 09:27:17;;;;;;;1.88;0.70;;;20.30;51.50;;;;;;5061903;28;20210;-80
2022/05/29 09:29:45;;;;;;;1.85;0.70;;;21.10;13.00;;;;;;5058215;28;20298;-79
2022/05/29 09:32:19;;;;;;;2.33;0.85;;;20.70;32.20;;;;;;5061080;28;20624;-80
2022/05/29 09:35:00;;;;;;;3.30;0.95;;;20.60;30.00;;;;;;5059010;28;20245;-79
2022/05/29 09:37:37;;;;;;;2.25;0.70;;;18.50;51.80;;;;;;5059169;28;20199;-80
2022/05/29 09:40:11;;;;;;;4.32;0.85;;;19.30;57.20;;;;;;5054411;28;20295;-80
2022/05/29 09:42:40;;;;;;;1.92;0.95;;;18.40;60.40;;;;;;5052025;28;20237;-80
2022/05/29 09:45:14;;;;;;;2.03;0.73;;;18.50;75.50;;;;;;5049890;28;20258;-80
2022/05/29 09:50:46;;;;;;;2.05;0.70;;;16.90;90.70;;;;;;5051820;28;20202;-79
2022/05/29 09:53:16;;;;;;;2.50;0.75;;;16.60;90.90;;;;;;5058291;28;20227;-80
2022/05/29 09:55:51;;;;;;;2.83;0.88;;;16.30;97.40;;;;;;5056794;28;20273;-79
2022/05/29 09:58:27;;;;;;;1.35;0.80;;;17.20;96.90;;;;;;5059168;28;20843;-80
2022/05/29 10:00:57;;;;;;;1.90;0.80;;;18.90;74.60;;;;;;5060282;28;20249;-79
2022/05/29 10:03:51;;;;;;;2.78;0.90;;;18.30;72.00;;;;;;5056264;28;20214;-80
2022/05/29 10:06:28;;;;;;;1.55;0.75;;;18.60;62.70;;;;;;5037589;28;20200;-80
2022/05/29 10:09:08;;;;;;;2.70;0.80;;;19.60;48.50;;;;;;5052320;28;20223;-79
2022/05/29 10:11:35;;;;;;;2.60;0.88;;;19.90;34.90;;;;;;5064585;28;20231;-80
2022/05/29 10:14:20;;;;;;;1.67;1.23;;;19.40;50.00;;;;;;5056256;28;20265;-80
2022/05/29 10:16:49;;;;;;;1.67;0.98;;;20.30;40.90;;;;;;5057719;28;20292;-79
2022/05/29 10:19:33;;;;;;;2.78;0.82;;;20.30;46.00;;;;;;5064477;28;20648;-80
2022/05/29 10:22:03;;;;;;;3.17;1.00;;;20.80;23.90;;;;;;5063054;28;20289;-80
2022/05/29 10:24:37;;;;;;;1.65;0.63;;;21.40;27.40;;;;;;5062257;28;20300;-80
2022/05/29 10:27:06;;;;;;;0.85;0.70;;;21.40;28.60;;;;;;5063722;28;20260;-80
2022/05/29 10:29:37;;;;;;;1.00;0.60;;;21.70;8.30;;;;;;5061531;28;20284;-80
2022/05/29 10:32:06;;;;;;;2.72;1.20;;;21.40;24.40;;;;;;5060620;28;20570;-80
2022/05/29 10:34:37;;;;;;;2.30;0.80;;;20.20;28.90;;;;;;5061757;28;20329;-80
2022/05/29 10:37:25;;;;;;;2.13;0.75;;;20.40;30.20;;;;;;5058896;28;20207;-80
2022/05/29 10:39:52;;;;;;;4.35;0.95;;;18.50;45.70;;;;;;5065530;28;20387;-79
2022/05/29 10:42:40;;;;;;;2.25;0.98;;;18.20;60.90;;;;;;5057080;28;20203;-80
2022/05/29 10:45:16;;;;;;;2.92;0.80;;;18.20;91.40;;;;;;5063197;28;20314;-80
2022/05/29 10:47:53;;;;;;;1.70;0.90;;;20.20;75.30;;;;;;5069383;28;20237;-80
2022/05/29 10:50:24;;;;;;;3.22;1.00;;;21.20;64.60;;;;;;5068460;28;20712;-80
2022/05/29 10:53:06;;;;;;;1.48;0.80;;;21.70;40.00;;;;;;5072317;28;20736;-80
2022/05/29 10:55:41;;;;;;;3.17;0.98;;;21.90;21.40;;;;;;5051331;28;20211;-80
2022/05/29 10:58:32;;;;;;;2.00;0.88;;;21.60;26.80;;;;;;5073102;28;20249;-80
2022/05/29 11:03:17;;;;;;;1.75;0.70;;;21.30;34.70;;;;;;5064763;28;20203;-80
2022/05/29 11:04:06;;;;;;;1.45;0.80;;;22.10;8.90;;;;;;5069225;28;20207;-80
2022/05/29 11:06:59;;;;;;;1.70;0.80;;;21.70;1.00;;;;;;5073445;28;20271;-80
2022/05/29 11:09:58;;;;;;;2.30;1.20;;;22.00;10.20;;;;;;5063254;28;20290;-80
2022/05/29 11:12:37;;;;;;;2.67;0.80;;;21.90;3.10;;;;;;5072101;28;20230;-80
2022/05/29 11:15:21;;;;;;;1.50;0.70;;;21.50;1.00;;;;;;5070242;28;20199;-80
2022/05/29 11:18:01;;;;;;;5.00;0.80;;;20.10;9.00;;;;;;5062543;28;20290;-80
2022/05/29 11:20:54;;;;;;;4.60;0.95;;;19.00;27.60;;;;;;5066754;28;20290;-80
2022/05/29 11:23:37;;;;;;;0.60;0.40;;;20.30;33.90;;;;;;5066288;28;20289;-79
2022/05/29 11:26:16;;;;;;;3.03;0.70;;;21.10;7.70;;;;;;5066128;28;20739;-79
2022/05/29 11:29:09;;;;;;;1.90;0.50;;;21.60;10.90;;;;;;5068335;28;20289;-80
2022/05/29 11:31:51;;;;;;;2.70;0.80;;;22.20;3.60;;;;;;5067537;28;20286;-78
2022/05/29 11:34:31;;;;;;;0.75;0.50;;;21.60;1.00;;;;;;5063919;28;20257;-80
2022/05/29 11:37:24;;;;;;;1.10;0.77;;;20.70;1.00;;;;;;5066632;28;20256;-80
2022/05/29 11:39:57;;;;;;;1.02;0.70;;;21.50;1.20;;;;;;5069576;28;20247;-80
2022/05/29 11:42:30;;;;;;;10.52;0.90;;;21.00;1.00;;;;;;5072622;28;20199;-79
2022/05/29 11:45:06;;;;;;;3.17;0.70;;;20.90;18.90;;;;;;5068534;28;20245;-79
2022/05/29 11:53:23;;;;;;;1.92;0.70;;;20.50;28.00;;;;;;5071405;28;20788;-80
2022/05/29 11:55:50;;;;;;;1.73;0.57;;;21.60;14.50;;;;;;5071566;28;20280;-80
2022/05/29 11:58:24;;;;;;;2.40;0.63;;;22.00;9.90;;;;;;5068987;28;20234;-80
2022/05/29 12:00:54;;;;;;;3.78;0.70;;;21.80;1.00;;;;;;5065099;28;20230;-79
2022/05/29 12:03:33;;;;;;;1.08;0.70;;;22.00;1.00;;;;;;5070847;28;20211;-80
2022/05/29 12:06:06;;;;;;;3.33;0.85;;;21.20;1.00;;;;;;5067313;28;20290;-80
2022/05/29 12:08:45;;;;;;;2.53;0.70;;;21.80;13.60;;;;;;5068926;28;20636;-79
2022/05/29 12:11:29;;;;;;;2.08;0.70;;;22.60;1.00;;;;;;5067861;28;20206;-80
2022/05/29 12:14:02;;;;;;;2.13;0.60;;;20.90;1.00;;;;;;5063018;28;20690;-79
2022/05/29 12:16:32;;;;;;;2.17;0.70;;;20.40;1.00;;;;;;5061763;28;20199;-80
2022/05/29 12:19:02;;;;;;;1.05;0.55;;;20.80;1.00;;;;;;5071514;28;20261;-80
2022/05/29 12:21:35;;;;;;;2.63;0.70;;;21.10;1.00;;;;;;5064869;28;20294;-80
2022/05/29 12:24:09;;;;;;;2.83;0.98;;;20.90;1.00;;;;;;5065345;28;20253;-80
2022/05/29 12:26:42;;;;;;;1.27;0.68;;;21.00;1.00;;;;;;5069350;28;20210;-80
2022/05/29 12:29:19;;;;;;;2.22;0.70;;;21.30;1.00;;;;;;5069391;28;20200;-80
2022/05/29 12:31:49;;;;;;;2.45;0.75;;;21.70;1.00;;;;;;5066277;28;20290;-79
2022/05/29 12:34:19;;;;;;;1.92;0.82;;;21.10;1.00;;;;;;5065192;28;20276;-79
2022/05/29 12:37:22;;;;;;;2.80;0.70;;;20.00;18.50;;;;;;5070081;28;20286;-80
2022/05/29 12:40:10;;;;;;;2.08;0.68;;;21.70;1.00;;;;;;5066501;28;20254;-79
2022/05/29 12:43:05;;;;;;;2.33;0.63;;;21.40;1.00;;;;;;5066368;28;20299;-79
2022/05/29 12:45:41;;;;;;;2.72;0.70;;;19.90;13.30;;;;;;5064080;28;20238;-80
2022/05/29 12:48:44;;;;;;;1.08;0.60;;;21.20;18.10;;;;;;5062589;28;20648;-79
2022/05/29 12:51:36;;;;;;;1.42;0.90;;;22.60;3.00;;;;;;5058009;28;20245;-78
2022/05/29 12:54:34;;;;;;;5.50;0.82;;;22.30;1.00;;;;;;5058279;28;20304;-80
2022/05/29 12:57:39;;;;;;;1.85;0.80;;;22.60;1.00;;;;;;5048199;28;20245;-79
2022/05/29 13:00:31;;;;;;;3.90;0.73;;;21.60;1.00;;;;;;5049025;28;20229;-79
2022/05/29 13:03:36;;;;;;;1.67;0.70;;;21.50;1.00;;;;;;5052906;28;20301;-80
2022/05/29 13:06:41;;;;;;;2.58;0.70;;;21.90;1.00;;;;;;5057303;28;20199;-80
2022/05/29 13:09:31;;;;;;;2.38;0.75;;;21.50;1.00;;;;;;5057311;28;20227;-80
2022/05/29 13:12:03;;;;;;;1.77;0.70;;;21.70;1.00;;;;;;5049197;28;20647;-80
2022/05/29 13:14:31;;;;;;;1.08;0.65;;;22.00;1.00;;;;;;5060168;28;20207;-79
2022/05/29 13:17:05;;;;;;;1.20;0.70;;;21.30;1.00;;;;;;5059012;28;20291;-80
2022/05/29 13:19:59;;;;;;;2.05;0.73;;;21.00;1.00;;;;;;5051717;28;20310;-80
2022/05/29 13:22:52;;;;;;;2.88;0.55;;;21.30;1.00;;;;;;5052426;28;20287;-80
2022/05/29 13:25:21;;;;;;;3.72;0.70;;;21.00;1.00;;;;;;5045756;28;20250;-79
2022/05/29 13:27:48;;;;;;;1.50;0.75;;;21.20;1.00;;;;;;5058650;28;20275;-79
2022/05/29 13:30:54;;;;;;;2.25;0.60;;;21.60;1.00;;;;;;5058728;28;20198;-80
2022/05/29 13:33:49;;;;;;;2.25;0.60;;;21.50;1.00;;;;;;4987475;28;20244;-80
2022/05/29 13:36:53;;;;;;;1.88;0.80;;;21.20;1.00;;;;;;4988741;28;20595;-80
2022/05/29 13:39:57;;;;;;;2.00;0.88;;;21.40;1.00;;;;;;4978346;28;20336;-80
2022/05/29 13:42:36;;;;;;;1.15;0.52;;;21.30;1.00;;;;;;4897094;29;20235;-80
2022/05/29 13:45:42;;;;;;;1.42;0.65;;;20.20;1.00;;;;;;4920002;29;20338;-80
2022/05/29 13:48:21;;;;;;;1.98;0.68;;;20.70;1.00;;;;;;4939781;29;20218;-79
2022/05/29 13:50:54;;;;;;;3.10;0.98;;;21.40;1.00;;;;;;4934097;29;20200;-80
2022/05/29 13:53:33;;;;;;;2.75;0.60;;;21.20;1.00;;;;;;4945184;28;20295;-80